sensor_id;sensor_type;location;lat;lon;timestamp;pressure;altitude;pressure_sealevel;temperature;humidity
21234;BME280;10774;42.178;26.578;2022-12-26T00:00:32;101063.44;;;4.39;100.00
21234;BME280;10774;42.178;26.578;2022-12-26T00:02:58;101050.59;;;4.60;100.00
21234;BME280;10774;42.178;26.578;2022-12-26T00:05:23;101059.53;;;4.56;99.21
21234;BME280;10774;42.178;26.578;2022-12-26T00:07:48;101062.97;;;4.19;100.00
21234;BME280;10774;42.178;26.578;2022-12-26T00:10:14;101072.97;;;4.05;100.00
21234;BME280;10774;42.178;26.578;2022-12-26T00:12:39;101039.59;;;3.90;100.00
21234;BME280;10774;42.178;26.578;2022-12-26T00:15:05;101066.91;;;3.47;100.00
21234;BME280;10774;42.178;26.578;2022-12-26T00:17:30;101070.88;;;3.23;100.00
21234;BME280;10774;42.178;26.578;2022-12-26T00:19:56;101078.06;;;3.67;100.00
21234;BME280;10774;42.178;26.578;2022-12-26T00:22:21;101066.13;;;3.44;100.00
21234;BME280;10774;42.178;26.578;2022-12-26T00:24:46;101089.88;;;2.96;100.00
21234;BME280;10774;42.178;26.578;2022-12-26T00:27:12;101098.47;;;3.10;100.00
21234;BME280;10774;42.178;26.578;2022-12-26T00:29:37;101080.00;;;3.04;100.00
21234;BME280;10774;42.178;26.578;2022-12-26T00:32:03;101093.53;;;2.85;100.00
21234;BME280;10774;42.178;26.578;2022-12-26T00:34:28;101067.34;;;3.21;100.00
21234;BME280;10774;42.178;26.578;2022-12-26T00:36:54;101085.75;;;3.33;100.00
21234;BME280;10774;42.178;26.578;2022-12-26T00:39:19;101109.38;;;3.49;100.00
21234;BME280;10774;42.178;26.578;2022-12-26T00:41:45;101101.63;;;3.35;100.00
21234;BME280;10774;42.178;26.578;2022-12-26T00:44:10;101085.59;;;3.41;100.00
21234;BME280;10774;42.178;26.578;2022-12-26T00:46:35;101092.22;;;3.68;100.00
21234;BME280;10774;42.178;26.578;2022-12-26T00:49:01;101098.16;;;3.85;100.00
21234;BME280;10774;42.178;26.578;2022-12-26T00:51:26;101116.53;;;3.96;100.00
21234;BME280;10774;42.178;26.578;2022-12-26T00:53:52;101108.56;;;3.94;100.00
21234;BME280;10774;42.178;26.578;2022-12-26T00:56:17;101126.06;;;4.08;100.00
21234;BME280;10774;42.178;26.578;2022-12-26T00:58:42;101120.78;;;4.05;100.00
21234;BME280;10774;42.178;26.578;2022-12-26T01:03:38;101120.63;;;4.14;100.00
21234;BME280;10774;42.178;26.578;2022-12-26T01:06:04;101131.41;;;4.05;100.00
21234;BME280;10774;42.178;26.578;2022-12-26T01:08:29;101118.81;;;4.17;100.00
21234;BME280;10774;42.178;26.578;2022-12-26T01:10:55;101112.78;;;4.08;100.00
21234;BME280;10774;42.178;26.578;2022-12-26T01:13:20;101136.63;;;4.11;100.00
21234;BME280;10774;42.178;26.578;2022-12-26T01:15:49;101140.69;;;3.82;100.00
21234;BME280;10774;42.178;26.578;2022-12-26T01:18:15;101148.53;;;3.34;100.00
21234;BME280;10774;42.178;26.578;2022-12-26T01:20:41;101118.19;;;3.51;100.00
21234;BME280;10774;42.178;26.578;2022-12-26T01:23:06;101127.28;;;3.34;100.00
21234;BME280;10774;42.178;26.578;2022-12-26T01:25:31;101127.72;;;3.05;100.00
21234;BME280;10774;42.178;26.578;2022-12-26T01:27:57;101122.56;;;2.95;100.00
21234;BME280;10774;42.178;26.578;2022-12-26T01:30:23;101166.91;;;2.83;100.00
21234;BME280;10774;42.178;26.578;2022-12-26T01:32:48;101143.63;;;2.38;100.00
21234;BME280;10774;42.178;26.578;2022-12-26T01:35:14;101142.81;;;2.32;100.00
21234;BME280;10774;42.178;26.578;2022-12-26T01:37:39;101151.31;;;2.57;100.00
21234;BME280;10774;42.178;26.578;2022-12-26T01:40:05;101157.63;;;2.47;100.00
21234;BME280;10774;42.178;26.578;2022-12-26T01:42:37;101134.19;;;2.12;100.00
21234;BME280;10774;42.178;26.578;2022-12-26T01:45:28;101153.31;;;2.39;100.00
21234;BME280;10774;42.178;26.578;2022-12-26T01:50:30;101146.78;;;2.67;100.00
21234;BME280;10774;42.178;26.578;2022-12-26T01:53:04;101122.03;;;2.68;100.00
21234;BME280;10774;42.178;26.578;2022-12-26T01:55:32;101115.47;;;2.26;100.00
21234;BME280;10774;42.178;26.578;2022-12-26T01:58:06;101128.47;;;2.47;100.00
21234;BME280;10774;42.178;26.578;2022-12-26T02:00:35;101133.56;;;2.66;100.00
21234;BME280;10774;42.178;26.578;2022-12-26T02:03:01;101132.22;;;2.29;100.00
21234;BME280;10774;42.178;26.578;2022-12-26T02:05:45;101123.53;;;2.15;100.00
21234;BME280;10774;42.178;26.578;2022-12-26T02:08:17;101139.19;;;2.36;100.00
21234;BME280;10774;42.178;26.578;2022-12-26T02:10:50;101148.22;;;2.19;100.00
21234;BME280;10774;42.178;26.578;2022-12-26T02:13:17;101143.06;;;2.05;100.00
21234;BME280;10774;42.178;26.578;2022-12-26T02:15:43;101156.53;;;1.82;100.00
21234;BME280;10774;42.178;26.578;2022-12-26T02:18:08;101150.19;;;2.01;100.00
21234;BME280;10774;42.178;26.578;2022-12-26T02:20:44;101137.53;;;2.26;100.00
21234;BME280;10774;42.178;26.578;2022-12-26T02:26:06;101153.28;;;2.42;100.00
21234;BME280;10774;42.178;26.578;2022-12-26T02:31:17;101160.63;;;2.15;100.00
21234;BME280;10774;42.178;26.578;2022-12-26T02:34:32;101157.03;;;2.22;100.00
21234;BME280;10774;42.178;26.578;2022-12-26T02:44:24;101119.06;;;2.93;100.00
21234;BME280;10774;42.178;26.578;2022-12-26T02:53:13;101125.38;;;2.82;100.00
21234;BME280;10774;42.178;26.578;2022-12-26T02:56:04;101129.03;;;2.75;100.00
21234;BME280;10774;42.178;26.578;2022-12-26T02:58:59;101088.31;;;2.81;100.00
21234;BME280;10774;42.178;26.578;2022-12-26T03:01:49;101115.47;;;2.97;100.00
21234;BME280;10774;42.178;26.578;2022-12-26T03:04:39;101093.31;;;2.99;100.00
21234;BME280;10774;42.178;26.578;2022-12-26T03:07:28;101121.31;;;3.22;100.00
21234;BME280;10774;42.178;26.578;2022-12-26T03:10:21;101123.38;;;3.01;100.00
21234;BME280;10774;42.178;26.578;2022-12-26T03:13:13;101125.25;;;2.93;100.00
21234;BME280;10774;42.178;26.578;2022-12-26T03:16:08;101127.38;;;2.67;100.00
21234;BME280;10774;42.178;26.578;2022-12-26T03:18:59;101132.19;;;3.03;100.00
21234;BME280;10774;42.178;26.578;2022-12-26T03:21:30;101134.09;;;1.18;100.00
21234;BME280;10774;42.178;26.578;2022-12-26T03:23:57;101131.44;;;1.15;100.00
21234;BME280;10774;42.178;26.578;2022-12-26T03:26:35;101156.22;;;0.99;100.00
21234;BME280;10774;42.178;26.578;2022-12-26T03:29:13;101156.50;;;0.35;100.00
21234;BME280;10774;42.178;26.578;2022-12-26T03:32:00;101143.28;;;0.36;100.00
21234;BME280;10774;42.178;26.578;2022-12-26T03:34:26;101163.53;;;0.30;100.00
21234;BME280;10774;42.178;26.578;2022-12-26T03:48:46;101177.44;;;0.87;100.00
21234;BME280;10774;42.178;26.578;2022-12-26T03:57:53;101162.97;;;1.49;100.00
21234;BME280;10774;42.178;26.578;2022-12-26T04:00:41;101169.13;;;1.54;100.00
21234;BME280;10774;42.178;26.578;2022-12-26T04:03:29;101162.00;;;1.57;100.00
21234;BME280;10774;42.178;26.578;2022-12-26T04:06:31;101154.91;;;1.66;100.00
21234;BME280;10774;42.178;26.578;2022-12-26T04:09:25;101150.47;;;1.69;100.00
21234;BME280;10774;42.178;26.578;2022-12-26T04:12:16;101169.59;;;2.02;100.00
21234;BME280;10774;42.178;26.578;2022-12-26T04:15:10;101152.81;;;2.03;100.00
21234;BME280;10774;42.178;26.578;2022-12-26T04:18:02;101167.84;;;1.98;100.00
21234;BME280;10774;42.178;26.578;2022-12-26T04:23:42;101167.00;;;1.96;100.00
21234;BME280;10774;42.178;26.578;2022-12-26T04:26:43;101184.50;;;2.10;100.00
21234;BME280;10774;42.178;26.578;2022-12-26T04:29:28;101180.09;;;2.11;100.00
21234;BME280;10774;42.178;26.578;2022-12-26T04:32:18;101155.03;;;1.46;100.00
21234;BME280;10774;42.178;26.578;2022-12-26T04:35:19;101163.13;;;1.27;100.00
21234;BME280;10774;42.178;26.578;2022-12-26T04:38:05;101156.78;;;1.47;100.00
21234;BME280;10774;42.178;26.578;2022-12-26T04:40:55;101190.06;;;1.78;100.00
21234;BME280;10774;42.178;26.578;2022-12-26T04:43:40;101171.75;;;1.54;100.00
21234;BME280;10774;42.178;26.578;2022-12-26T04:46:25;101180.38;;;1.77;100.00
21234;BME280;10774;42.178;26.578;2022-12-26T04:48:52;101189.34;;;1.60;100.00
21234;BME280;10774;42.178;26.578;2022-12-26T04:51:37;101165.53;;;1.58;100.00
21234;BME280;10774;42.178;26.578;2022-12-26T04:54:04;101175.22;;;1.62;100.00
21234;BME280;10774;42.178;26.578;2022-12-26T04:56:29;101186.72;;;1.56;100.00
21234;BME280;10774;42.178;26.578;2022-12-26T04:58:55;101189.34;;;1.58;100.00
21234;BME280;10774;42.178;26.578;2022-12-26T05:01:20;101191.91;;;1.72;100.00
21234;BME280;10774;42.178;26.578;2022-12-26T05:04:04;101179.72;;;1.49;100.00
21234;BME280;10774;42.178;26.578;2022-12-26T05:06:48;101191.88;;;1.73;100.00
21234;BME280;10774;42.178;26.578;2022-12-26T05:09:32;101164.41;;;1.88;100.00
21234;BME280;10774;42.178;26.578;2022-12-26T05:11:58;101157.63;;;1.52;100.00
21234;BME280;10774;42.178;26.578;2022-12-26T05:14:24;101175.94;;;1.82;100.00
21234;BME280;10774;42.178;26.578;2022-12-26T05:16:49;101202.47;;;1.75;100.00
21234;BME280;10774;42.178;26.578;2022-12-26T05:19:33;101211.34;;;1.69;100.00
21234;BME280;10774;42.178;26.578;2022-12-26T05:22:17;101222.09;;;1.40;100.00
21234;BME280;10774;42.178;26.578;2022-12-26T05:25:02;101195.09;;;0.85;100.00
21234;BME280;10774;42.178;26.578;2022-12-26T05:27:46;101201.97;;;1.16;100.00
21234;BME280;10774;42.178;26.578;2022-12-26T05:30:30;101208.28;;;0.82;100.00
21234;BME280;10774;42.178;26.578;2022-12-26T05:32:55;101214.34;;;1.08;100.00
21234;BME280;10774;42.178;26.578;2022-12-26T05:35:39;101223.22;;;0.89;100.00
21234;BME280;10774;42.178;26.578;2022-12-26T05:38:05;101230.28;;;0.88;100.00
21234;BME280;10774;42.178;26.578;2022-12-26T05:40:31;101230.31;;;0.84;100.00
21234;BME280;10774;42.178;26.578;2022-12-26T05:42:56;101204.63;;;1.10;100.00
21234;BME280;10774;42.178;26.578;2022-12-26T05:45:22;101230.13;;;1.28;100.00
21234;BME280;10774;42.178;26.578;2022-12-26T05:47:47;101224.81;;;1.26;100.00
21234;BME280;10774;42.178;26.578;2022-12-26T05:50:13;101237.81;;;1.68;100.00
21234;BME280;10774;42.178;26.578;2022-12-26T05:52:38;101242.09;;;1.84;100.00
21234;BME280;10774;42.178;26.578;2022-12-26T05:55:04;101222.75;;;1.77;100.00
21234;BME280;10774;42.178;26.578;2022-12-26T05:57:29;101220.94;;;1.86;100.00
21234;BME280;10774;42.178;26.578;2022-12-26T05:59:55;101226.03;;;2.08;100.00
21234;BME280;10774;42.178;26.578;2022-12-26T06:02:20;101228.03;;;1.80;100.00
21234;BME280;10774;42.178;26.578;2022-12-26T06:04:46;101222.56;;;1.99;100.00
21234;BME280;10774;42.178;26.578;2022-12-26T06:07:11;101242.00;;;1.95;100.00
21234;BME280;10774;42.178;26.578;2022-12-26T06:09:36;101251.69;;;1.99;100.00
21234;BME280;10774;42.178;26.578;2022-12-26T06:12:02;101205.81;;;1.97;100.00
21234;BME280;10774;42.178;26.578;2022-12-26T06:14:28;101234.88;;;2.07;100.00
21234;BME280;10774;42.178;26.578;2022-12-26T06:16:53;101220.72;;;2.12;100.00
21234;BME280;10774;42.178;26.578;2022-12-26T06:19:18;101238.22;;;2.26;100.00
21234;BME280;10774;42.178;26.578;2022-12-26T06:21:44;101238.19;;;2.29;100.00
21234;BME280;10774;42.178;26.578;2022-12-26T06:24:09;101256.47;;;2.57;100.00
21234;BME280;10774;42.178;26.578;2022-12-26T06:26:35;101245.84;;;2.60;100.00
21234;BME280;10774;42.178;26.578;2022-12-26T06:29:00;101260.69;;;2.76;100.00
21234;BME280;10774;42.178;26.578;2022-12-26T06:31:25;101263.09;;;2.98;100.00
21234;BME280;10774;42.178;26.578;2022-12-26T06:33:55;101240.06;;;3.00;100.00
21234;BME280;10774;42.178;26.578;2022-12-26T06:36:23;101254.97;;;3.13;100.00
21234;BME280;10774;42.178;26.578;2022-12-26T06:38:50;101254.88;;;3.19;100.00
21234;BME280;10774;42.178;26.578;2022-12-26T06:41:18;101263.56;;;3.33;100.00
21234;BME280;10774;42.178;26.578;2022-12-26T06:43:44;101251.94;;;2.68;100.00
21234;BME280;10774;42.178;26.578;2022-12-26T06:46:15;101260.44;;;2.98;100.00
21234;BME280;10774;42.178;26.578;2022-12-26T06:48:41;101273.06;;;2.77;100.00
21234;BME280;10774;42.178;26.578;2022-12-26T06:51:12;101274.50;;;2.15;100.00
21234;BME280;10774;42.178;26.578;2022-12-26T06:53:38;101289.63;;;2.04;100.00
21234;BME280;10774;42.178;26.578;2022-12-26T06:56:08;101270.38;;;1.80;100.00
21234;BME280;10774;42.178;26.578;2022-12-26T06:58:35;101289.44;;;2.25;100.00
21234;BME280;10774;42.178;26.578;2022-12-26T07:01:15;101265.69;;;2.18;100.00
21234;BME280;10774;42.178;26.578;2022-12-26T07:03:42;101296.88;;;1.73;100.00
21234;BME280;10774;42.178;26.578;2022-12-26T07:06:21;101293.69;;;2.46;100.00
21234;BME280;10774;42.178;26.578;2022-12-26T07:08:48;101270.56;;;2.60;100.00
21234;BME280;10774;42.178;26.578;2022-12-26T07:11:15;101282.38;;;2.26;100.00
21234;BME280;10774;42.178;26.578;2022-12-26T07:13:41;101247.84;;;1.12;100.00
21234;BME280;10774;42.178;26.578;2022-12-26T07:16:07;101281.03;;;1.67;100.00
21234;BME280;10774;42.178;26.578;2022-12-26T07:18:32;101273.25;;;1.44;100.00
21234;BME280;10774;42.178;26.578;2022-12-26T07:20:58;101279.91;;;2.04;100.00
21234;BME280;10774;42.178;26.578;2022-12-26T07:23:23;101275.28;;;2.32;100.00
21234;BME280;10774;42.178;26.578;2022-12-26T07:25:48;101268.88;;;2.55;100.00
21234;BME280;10774;42.178;26.578;2022-12-26T07:28:14;101281.13;;;2.67;100.00
21234;BME280;10774;42.178;26.578;2022-12-26T07:30:46;101293.94;;;3.08;100.00
21234;BME280;10774;42.178;26.578;2022-12-26T07:33:11;101276.81;;;2.55;100.00
21234;BME280;10774;42.178;26.578;2022-12-26T07:35:37;101271.91;;;2.09;100.00
21234;BME280;10774;42.178;26.578;2022-12-26T07:38:02;101297.47;;;2.18;100.00
21234;BME280;10774;42.178;26.578;2022-12-26T07:40:27;101301.88;;;2.17;100.00
21234;BME280;10774;42.178;26.578;2022-12-26T07:42:53;101305.66;;;1.86;100.00
21234;BME280;10774;42.178;26.578;2022-12-26T07:45:18;101293.41;;;1.69;100.00
21234;BME280;10774;42.178;26.578;2022-12-26T07:47:44;101287.91;;;1.94;100.00
21234;BME280;10774;42.178;26.578;2022-12-26T07:50:09;101298.34;;;2.18;100.00
21234;BME280;10774;42.178;26.578;2022-12-26T07:52:35;101293.63;;;2.52;100.00
21234;BME280;10774;42.178;26.578;2022-12-26T07:55:00;101290.84;;;2.63;100.00
21234;BME280;10774;42.178;26.578;2022-12-26T07:57:26;101292.59;;;3.42;100.00
21234;BME280;10774;42.178;26.578;2022-12-26T07:59:51;101301.88;;;3.77;100.00
21234;BME280;10774;42.178;26.578;2022-12-26T08:02:17;101307.06;;;3.86;100.00
21234;BME280;10774;42.178;26.578;2022-12-26T08:04:42;101295.16;;;4.10;100.00
21234;BME280;10774;42.178;26.578;2022-12-26T08:07:08;101289.78;;;4.15;100.00
21234;BME280;10774;42.178;26.578;2022-12-26T08:09:34;101303.81;;;4.25;100.00
21234;BME280;10774;42.178;26.578;2022-12-26T08:11:59;101305.19;;;4.49;100.00
21234;BME280;10774;42.178;26.578;2022-12-26T08:14:25;101313.72;;;4.67;100.00
21234;BME280;10774;42.178;26.578;2022-12-26T08:16:50;101261.59;;;4.59;100.00
21234;BME280;10774;42.178;26.578;2022-12-26T08:19:15;101308.53;;;4.06;100.00
21234;BME280;10774;42.178;26.578;2022-12-26T08:21:41;101295.53;;;4.41;100.00
21234;BME280;10774;42.178;26.578;2022-12-26T08:24:06;101290.53;;;4.76;100.00
21234;BME280;10774;42.178;26.578;2022-12-26T08:26:32;101288.25;;;5.02;100.00
21234;BME280;10774;42.178;26.578;2022-12-26T08:28:57;101292.41;;;5.15;100.00
21234;BME280;10774;42.178;26.578;2022-12-26T08:31:23;101280.09;;;5.10;100.00
21234;BME280;10774;42.178;26.578;2022-12-26T08:33:48;101280.91;;;5.13;100.00
21234;BME280;10774;42.178;26.578;2022-12-26T08:36:14;101288.66;;;4.81;100.00
21234;BME280;10774;42.178;26.578;2022-12-26T08:38:42;101255.63;;;4.44;100.00
21234;BME280;10774;42.178;26.578;2022-12-26T08:41:07;101276.16;;;5.29;100.00
21234;BME280;10774;42.178;26.578;2022-12-26T08:43:33;101278.81;;;5.29;100.00
21234;BME280;10774;42.178;26.578;2022-12-26T08:46:01;101272.66;;;5.67;100.00
21234;BME280;10774;42.178;26.578;2022-12-26T08:48:27;101247.34;;;5.87;100.00
21234;BME280;10774;42.178;26.578;2022-12-26T08:51:05;101228.31;;;6.03;100.00
21234;BME280;10774;42.178;26.578;2022-12-26T08:53:31;101269.19;;;6.40;100.00
21234;BME280;10774;42.178;26.578;2022-12-26T08:56:00;101262.91;;;6.07;99.20
21234;BME280;10774;42.178;26.578;2022-12-26T08:58:26;101258.00;;;5.06;100.00
21234;BME280;10774;42.178;26.578;2022-12-26T09:00:53;101248.34;;;5.01;100.00
21234;BME280;10774;42.178;26.578;2022-12-26T09:03:18;101232.28;;;5.07;100.00
21234;BME280;10774;42.178;26.578;2022-12-26T09:05:44;101253.75;;;5.39;100.00
21234;BME280;10774;42.178;26.578;2022-12-26T09:08:10;101230.41;;;5.50;100.00
21234;BME280;10774;42.178;26.578;2022-12-26T09:10:35;101236.88;;;5.40;100.00
21234;BME280;10774;42.178;26.578;2022-12-26T09:13:01;101219.63;;;5.57;100.00
21234;BME280;10774;42.178;26.578;2022-12-26T09:15:27;101220.19;;;5.71;100.00
21234;BME280;10774;42.178;26.578;2022-12-26T09:17:52;101192.44;;;5.80;100.00
21234;BME280;10774;42.178;26.578;2022-12-26T09:20:17;101213.53;;;6.26;100.00
21234;BME280;10774;42.178;26.578;2022-12-26T09:22:43;101220.38;;;6.36;100.00
21234;BME280;10774;42.178;26.578;2022-12-26T09:25:15;101219.31;;;6.74;100.00
21234;BME280;10774;42.178;26.578;2022-12-26T09:27:40;101226.59;;;7.00;100.00
21234;BME280;10774;42.178;26.578;2022-12-26T09:30:06;101227.03;;;6.85;100.00
21234;BME280;10774;42.178;26.578;2022-12-26T09:32:33;101222.16;;;6.68;100.00
21234;BME280;10774;42.178;26.578;2022-12-26T09:34:58;101217.03;;;6.93;100.00
21234;BME280;10774;42.178;26.578;2022-12-26T09:37:24;101176.59;;;6.76;100.00
21234;BME280;10774;42.178;26.578;2022-12-26T09:39:49;101204.97;;;7.10;100.00
21234;BME280;10774;42.178;26.578;2022-12-26T09:42:47;101211.41;;;7.33;100.00
21234;BME280;10774;42.178;26.578;2022-12-26T09:45:17;101186.78;;;7.52;100.00
21234;BME280;10774;42.178;26.578;2022-12-26T09:48:03;101173.00;;;7.92;100.00
21234;BME280;10774;42.178;26.578;2022-12-26T09:50:34;101175.97;;;7.83;100.00
21234;BME280;10774;42.178;26.578;2022-12-26T09:53:16;101187.09;;;7.97;100.00
21234;BME280;10774;42.178;26.578;2022-12-26T09:55:53;101166.50;;;8.26;100.00
21234;BME280;10774;42.178;26.578;2022-12-26T09:58:30;101186.41;;;8.69;97.98
21234;BME280;10774;42.178;26.578;2022-12-26T10:01:15;101174.94;;;8.40;98.19
21234;BME280;10774;42.178;26.578;2022-12-26T10:03:44;101173.63;;;8.77;97.36
21234;BME280;10774;42.178;26.578;2022-12-26T10:12:34;101173.06;;;8.92;96.20
21234;BME280;10774;42.178;26.578;2022-12-26T10:15:05;101150.56;;;9.20;94.96
21234;BME280;10774;42.178;26.578;2022-12-26T10:17:41;101142.38;;;9.46;94.62
21234;BME280;10774;42.178;26.578;2022-12-26T10:30:47;101121.72;;;10.12;90.40
21234;BME280;10774;42.178;26.578;2022-12-26T10:33:19;101105.38;;;10.18;89.57
21234;BME280;10774;42.178;26.578;2022-12-26T10:35:46;101112.88;;;10.10;89.94
21234;BME280;10774;42.178;26.578;2022-12-26T10:38:35;101104.69;;;10.13;90.90
21234;BME280;10774;42.178;26.578;2022-12-26T10:41:13;101106.22;;;10.19;89.23
21234;BME280;10774;42.178;26.578;2022-12-26T10:43:42;101114.69;;;10.51;89.14
21234;BME280;10774;42.178;26.578;2022-12-26T10:49:15;101112.59;;;10.57;87.49
21234;BME280;10774;42.178;26.578;2022-12-26T10:51:43;101114.38;;;10.96;85.68
21234;BME280;10774;42.178;26.578;2022-12-26T10:54:13;101101.31;;;11.07;84.12
21234;BME280;10774;42.178;26.578;2022-12-26T10:56:43;101116.31;;;11.13;84.12
21234;BME280;10774;42.178;26.578;2022-12-26T10:59:16;101118.81;;;11.35;81.19
21234;BME280;10774;42.178;26.578;2022-12-26T11:01:43;101116.69;;;11.22;82.70
21234;BME280;10774;42.178;26.578;2022-12-26T11:04:21;101115.84;;;11.22;81.43
21234;BME280;10774;42.178;26.578;2022-12-26T11:06:50;101111.09;;;11.46;82.19
21234;BME280;10774;42.178;26.578;2022-12-26T11:10:05;101124.13;;;11.72;79.86
21234;BME280;10774;42.178;26.578;2022-12-26T11:12:29;101127.50;;;11.95;76.47
21234;BME280;10774;42.178;26.578;2022-12-26T11:15:01;101104.56;;;11.88;77.72
21234;BME280;10774;42.178;26.578;2022-12-26T11:17:30;101115.00;;;11.94;77.58
21234;BME280;10774;42.178;26.578;2022-12-26T11:22:42;101099.03;;;12.25;75.61
21234;BME280;10774;42.178;26.578;2022-12-26T11:25:16;101093.59;;;12.43;74.66
21234;BME280;10774;42.178;26.578;2022-12-26T11:27:44;101086.97;;;12.50;74.92
21234;BME280;10774;42.178;26.578;2022-12-26T11:32:39;101079.28;;;12.42;75.31
21234;BME280;10774;42.178;26.578;2022-12-26T11:35:06;101077.09;;;12.66;75.07
21234;BME280;10774;42.178;26.578;2022-12-26T11:37:41;101064.25;;;12.71;64.31
21234;BME280;10774;42.178;26.578;2022-12-26T11:40:20;101080.44;;;12.87;62.43
21234;BME280;10774;42.178;26.578;2022-12-26T11:42:57;101075.56;;;12.94;62.67
21234;BME280;10774;42.178;26.578;2022-12-26T11:45:28;101065.66;;;12.94;62.94
21234;BME280;10774;42.178;26.578;2022-12-26T11:47:56;101066.09;;;13.02;60.84
21234;BME280;10774;42.178;26.578;2022-12-26T11:50:26;101067.59;;;13.08;62.05
21234;BME280;10774;42.178;26.578;2022-12-26T11:53:14;101077.50;;;13.23;59.56
21234;BME280;10774;42.178;26.578;2022-12-26T11:55:40;101074.28;;;13.32;59.93
21234;BME280;10774;42.178;26.578;2022-12-26T12:03:01;101073.25;;;13.51;60.46
21234;BME280;10774;42.178;26.578;2022-12-26T12:05:35;101075.03;;;13.66;59.00
21234;BME280;10774;42.178;26.578;2022-12-26T12:43:30;101036.19;;;13.99;56.16
21234;BME280;10774;42.178;26.578;2022-12-26T12:49:02;101057.56;;;14.32;57.04
21234;BME280;10774;42.178;26.578;2022-12-26T12:51:45;101072.91;;;14.31;56.45
21234;BME280;10774;42.178;26.578;2022-12-26T12:54:48;101066.94;;;14.41;55.82
21234;BME280;10774;42.178;26.578;2022-12-26T12:57:27;101064.47;;;14.52;55.05
21234;BME280;10774;42.178;26.578;2022-12-26T13:06:00;101071.22;;;14.59;55.28
21234;BME280;10774;42.178;26.578;2022-12-26T13:08:07;101064.94;;;14.73;56.29
21234;BME280;10774;42.178;26.578;2022-12-26T13:10:40;101057.31;;;14.79;56.87
21234;BME280;10774;42.178;26.578;2022-12-26T13:13:31;101053.81;;;14.91;56.60
21234;BME280;10774;42.178;26.578;2022-12-26T13:16:15;101055.53;;;15.07;56.42
21234;BME280;10774;42.178;26.578;2022-12-26T13:19:05;101065.59;;;15.05;55.76
21234;BME280;10774;42.178;26.578;2022-12-26T13:21:35;101048.03;;;14.98;55.43
21234;BME280;10774;42.178;26.578;2022-12-26T13:24:14;101058.78;;;15.12;55.30
21234;BME280;10774;42.178;26.578;2022-12-26T13:27:00;101056.50;;;15.06;54.41
21234;BME280;10774;42.178;26.578;2022-12-26T13:29:47;101058.16;;;14.94;54.67
21234;BME280;10774;42.178;26.578;2022-12-26T13:32:19;101065.81;;;14.87;54.25
21234;BME280;10774;42.178;26.578;2022-12-26T13:34:45;101052.09;;;14.76;54.13
21234;BME280;10774;42.178;26.578;2022-12-26T13:55:54;101050.78;;;15.10;56.40
21234;BME280;10774;42.178;26.578;2022-12-26T13:58:50;101049.66;;;15.00;56.47
21234;BME280;10774;42.178;26.578;2022-12-26T14:07:02;101034.72;;;14.80;57.42
21234;BME280;10774;42.178;26.578;2022-12-26T14:23:45;101052.41;;;13.99;60.99
21234;BME280;10774;42.178;26.578;2022-12-26T14:29:20;101055.72;;;13.58;62.88
21234;BME280;10774;42.178;26.578;2022-12-26T14:48:02;101074.09;;;11.87;76.20
21234;BME280;10774;42.178;26.578;2022-12-26T14:55:52;101065.88;;;11.54;80.33
21234;BME280;10774;42.178;26.578;2022-12-26T15:01:01;101057.88;;;11.35;82.85
21234;BME280;10774;42.178;26.578;2022-12-26T15:09:32;101063.16;;;10.82;86.66
21234;BME280;10774;42.178;26.578;2022-12-26T15:15:07;101069.22;;;10.66;88.01
21234;BME280;10774;42.178;26.578;2022-12-26T15:21:01;101062.53;;;10.56;90.33
21234;BME280;10774;42.178;26.578;2022-12-26T15:35:20;101057.88;;;10.00;95.26
21234;BME280;10774;42.178;26.578;2022-12-26T15:40:43;101064.56;;;10.10;95.18
21234;BME280;10774;42.178;26.578;2022-12-26T15:48:43;101074.34;;;9.91;96.23
21234;BME280;10774;42.178;26.578;2022-12-26T15:57:12;101075.78;;;10.00;96.91
21234;BME280;10774;42.178;26.578;2022-12-26T16:04:57;101087.91;;;9.88;97.55
21234;BME280;10774;42.178;26.578;2022-12-26T16:07:40;101091.53;;;9.87;98.20
21234;BME280;10774;42.178;26.578;2022-12-26T16:10:27;101065.78;;;9.83;97.06
21234;BME280;10774;42.178;26.578;2022-12-26T16:15:45;101066.03;;;9.77;99.92
21234;BME280;10774;42.178;26.578;2022-12-26T16:18:20;101073.91;;;9.81;98.42
21234;BME280;10774;42.178;26.578;2022-12-26T16:20:46;101071.00;;;9.86;97.26
21234;BME280;10774;42.178;26.578;2022-12-26T16:23:36;101065.41;;;9.50;98.10
21234;BME280;10774;42.178;26.578;2022-12-26T16:26:02;101076.13;;;9.50;99.61
21234;BME280;10774;42.178;26.578;2022-12-26T16:28:37;101079.53;;;9.53;99.20
21234;BME280;10774;42.178;26.578;2022-12-26T16:31:03;101053.13;;;9.22;100.00
21234;BME280;10774;42.178;26.578;2022-12-26T16:33:31;101053.97;;;9.23;100.00
21234;BME280;10774;42.178;26.578;2022-12-26T16:35:59;101056.38;;;9.08;100.00
21234;BME280;10774;42.178;26.578;2022-12-26T16:38:28;101050.19;;;9.06;100.00
21234;BME280;10774;42.178;26.578;2022-12-26T16:40:54;101066.06;;;9.11;100.00
21234;BME280;10774;42.178;26.578;2022-12-26T16:43:29;101055.88;;;9.21;100.00
21234;BME280;10774;42.178;26.578;2022-12-26T16:45:58;101036.56;;;9.12;100.00
21234;BME280;10774;42.178;26.578;2022-12-26T16:48:27;101055.28;;;8.90;100.00
21234;BME280;10774;42.178;26.578;2022-12-26T16:53:42;101052.22;;;8.78;100.00
21234;BME280;10774;42.178;26.578;2022-12-26T16:56:25;101044.22;;;8.54;100.00
21234;BME280;10774;42.178;26.578;2022-12-26T16:59:05;101026.44;;;8.52;100.00